Time;durP1;ratioP1;P1;durP2;ratioP2;P2;SDS_P1;SDS_P2;PMS_P1;PMS_P2;Temp;Humidity;BMP_temperature;BMP_pressure;BME280_temperature;BME280_humidity;BME280_pressure;Samples;Min_cycle;Max_cycle;Signal;HPM_P1;HPM_P2
2022/04/03 00:01:58;;;;;;;8.37;5.37;;;4.40;99.90;;;;;;7392555;19;20159;-81
2022/04/03 00:04:25;;;;;;;7.43;5.63;;;4.40;99.90;;;;;;7395133;19;20205;-84
2022/04/03 00:07:00;;;;;;;6.17;5.30;;;4.50;99.90;;;;;;7402259;19;20149;-81
2022/04/03 00:09:33;;;;;;;7.30;5.43;;;4.50;99.90;;;;;;7396052;19;20576;-83
2022/04/03 00:12:00;;;;;;;6.90;5.17;;;4.30;99.90;;;;;;7393049;19;20306;-80
2022/04/03 00:14:27;;;;;;;7.20;5.37;;;4.30;99.90;;;;;;7393210;19;20155;-82
2022/04/03 00:16:53;;;;;;;8.97;5.37;;;4.30;99.90;;;;;;7393538;19;20521;-81
2022/04/03 00:19:19;;;;;;;9.00;5.70;;;4.30;99.90;;;;;;7389329;19;20611;-82
2022/04/03 00:21:49;;;;;;;7.77;5.20;;;4.40;99.90;;;;;;7390826;19;20142;-82
2022/04/03 00:24:15;;;;;;;7.97;5.50;;;4.40;99.90;;;;;;7386789;19;20147;-82
2022/04/03 00:26:40;;;;;;;6.33;4.90;;;4.30;99.90;;;;;;7397947;19;20134;-82
2022/04/03 00:29:06;;;;;;;8.07;5.87;;;4.30;99.90;;;;;;7395080;19;20190;-82
2022/04/03 00:31:32;;;;;;;8.70;5.57;;;4.30;99.90;;;;;;7393412;19;20480;-82
2022/04/03 00:33:58;;;;;;;9.77;6.10;;;4.20;99.90;;;;;;7390047;19;20154;-80
2022/04/03 00:36:24;;;;;;;8.57;5.77;;;4.30;99.90;;;;;;7390879;19;20158;-81
2022/04/03 00:38:50;;;;;;;8.70;5.77;;;4.20;99.90;;;;;;7386278;19;20184;-81
2022/04/03 00:41:17;;;;;;;8.77;5.57;;;4.20;99.90;;;;;;7387699;19;20647;-82
2022/04/03 00:43:44;;;;;;;8.20;5.40;;;4.10;99.90;;;;;;7387275;19;20150;-84
2022/04/03 00:46:12;;;;;;;8.23;5.87;;;4.10;99.90;;;;;;7388263;19;20131;-82
2022/04/03 00:48:40;;;;;;;8.87;5.73;;;4.20;99.90;;;;;;7393219;19;20146;-83
2022/04/03 00:51:05;;;;;;;7.10;5.13;;;4.30;99.90;;;;;;7400622;19;20130;-82
2022/04/03 00:53:32;;;;;;;8.83;6.20;;;4.30;99.90;;;;;;7391105;19;20598;-81
2022/04/03 00:55:59;;;;;;;9.57;5.93;;;4.10;99.90;;;;;;7388910;19;20138;-82
2022/04/03 00:58:24;;;;;;;7.87;5.50;;;4.20;99.90;;;;;;7387375;19;20517;-83
2022/04/03 01:00:50;;;;;;;8.07;6.00;;;4.10;99.90;;;;;;7392822;19;20163;-82
2022/04/03 01:03:16;;;;;;;9.03;6.07;;;4.20;99.90;;;;;;7386184;19;20134;-82
2022/04/03 01:05:42;;;;;;;9.33;6.47;;;4.20;99.90;;;;;;7387637;19;20170;-82
2022/04/03 01:08:07;;;;;;;11.03;6.27;;;4.20;99.90;;;;;;7391849;19;20151;-83
2022/04/03 01:10:33;;;;;;;8.07;6.07;;;4.20;99.90;;;;;;7403317;19;20134;-82
2022/04/03 01:12:59;;;;;;;8.43;5.97;;;4.40;99.90;;;;;;7398474;19;20134;-84
2022/04/03 01:15:25;;;;;;;8.00;5.70;;;4.60;99.90;;;;;;7392198;19;20150;-82
2022/04/03 01:17:51;;;;;;;7.60;5.57;;;4.30;99.90;;;;;;7387760;19;20142;-81
2022/04/03 01:20:18;;;;;;;7.17;6.17;;;4.40;99.90;;;;;;7392829;19;20147;-83
2022/04/03 01:22:44;;;;;;;9.90;6.30;;;4.20;99.90;;;;;;7392266;19;20590;-82
2022/04/03 01:25:10;;;;;;;9.63;5.63;;;4.20;99.90;;;;;;7391939;19;20119;-81
2022/04/03 01:27:36;;;;;;;14.00;7.40;;;4.10;99.90;;;;;;7391246;19;20492;-82
2022/04/03 01:30:04;;;;;;;10.53;6.23;;;4.10;99.90;;;;;;7391957;19;20137;-83
2022/04/03 01:32:30;;;;;;;10.00;6.77;;;4.00;99.90;;;;;;7403137;19;20134;-82
2022/04/03 01:34:56;;;;;;;10.33;6.37;;;4.10;99.90;;;;;;7391056;19;20849;-82
2022/04/03 01:37:21;;;;;;;9.97;7.07;;;4.10;99.90;;;;;;7387691;19;20174;-81
2022/04/03 01:39:47;;;;;;;8.27;6.53;;;3.90;99.90;;;;;;7390221;19;20514;-82
2022/04/03 01:42:13;;;;;;;7.80;5.73;;;4.00;99.90;;;;;;7392464;19;20138;-81
2022/04/03 01:44:39;;;;;;;9.57;6.17;;;4.10;99.90;;;;;;7388388;19;20154;-82
2022/04/03 01:47:05;;;;;;;8.87;5.37;;;4.10;99.90;;;;;;7388236;19;20133;-82
2022/04/03 01:49:30;;;;;;;9.47;6.33;;;4.10;99.90;;;;;;7390210;19;20131;-82
2022/04/03 01:51:56;;;;;;;8.87;6.00;;;4.20;99.90;;;;;;7388880;19;20135;-82
2022/04/03 01:54:22;;;;;;;8.83;5.30;;;4.10;99.90;;;;;;7394079;19;20153;-82
2022/04/03 01:56:48;;;;;;;8.13;5.77;;;4.10;99.90;;;;;;7389046;19;20138;-83
2022/04/03 01:59:23;;;;;;;10.87;5.77;;;4.20;99.90;;;;;;7388626;19;20493;-81
2022/04/03 02:01:48;;;;;;;7.17;5.57;;;4.10;99.90;;;;;;7388516;19;20136;-82
2022/04/03 02:04:17;;;;;;;7.87;5.23;;;4.20;99.90;;;;;;7386207;19;20198;-83
2022/04/03 02:06:43;;;;;;;7.80;5.13;;;4.20;99.90;;;;;;7387479;19;20151;-84
2022/04/03 02:09:09;;;;;;;9.00;5.83;;;4.10;99.90;;;;;;7389780;19;20142;-84
2022/04/03 02:11:36;;;;;;;7.43;5.23;;;4.20;99.90;;;;;;7393250;19;20214;-81
2022/04/03 02:14:02;;;;;;;7.30;5.43;;;4.20;99.90;;;;;;7394354;19;20136;-81
2022/04/03 02:16:28;;;;;;;9.80;5.57;;;4.10;99.90;;;;;;7390048;19;20135;-82
2022/04/03 02:18:54;;;;;;;7.27;5.47;;;4.00;99.90;;;;;;7388953;19;20138;-82
2022/04/03 02:21:20;;;;;;;9.40;5.80;;;4.00;99.90;;;;;;7387997;19;20725;-82
2022/04/03 02:23:46;;;;;;;10.00;5.83;;;4.00;99.90;;;;;;7385867;19;20146;-82
2022/04/03 02:26:11;;;;;;;9.17;6.10;;;4.10;99.90;;;;;;7388264;19;20210;-81
2022/04/03 02:28:39;;;;;;;8.40;6.17;;;4.20;99.90;;;;;;7386863;19;20555;-83
2022/04/03 02:31:05;;;;;;;7.43;5.73;;;4.00;99.90;;;;;;7392174;19;20160;-81
2022/04/03 02:33:31;;;;;;;9.27;5.83;;;4.10;99.90;;;;;;7396697;19;20209;-81
2022/04/03 02:35:56;;;;;;;8.10;5.70;;;4.20;99.90;;;;;;7395952;19;20147;-83
2022/04/03 02:38:24;;;;;;;9.43;6.43;;;4.30;99.90;;;;;;7394914;19;20562;-83
2022/04/03 02:40:49;;;;;;;8.07;5.80;;;4.20;99.90;;;;;;7397731;19;20139;-83
2022/04/03 02:43:15;;;;;;;9.27;6.83;;;4.20;99.90;;;;;;7393818;19;20147;-82
2022/04/03 02:45:41;;;;;;;8.67;5.80;;;4.20;99.90;;;;;;7394241;19;20198;-83
2022/04/03 02:48:08;;;;;;;8.17;5.57;;;4.10;99.90;;;;;;7393656;19;20134;-82
2022/04/03 02:50:34;;;;;;;8.43;6.03;;;4.10;99.90;;;;;;7394500;19;20143;-82
2022/04/03 02:53:00;;;;;;;7.70;5.83;;;4.10;99.90;;;;;;7399388;19;20167;-82
2022/04/03 02:55:26;;;;;;;8.20;5.83;;;4.30;99.90;;;;;;7393967;19;20163;-81
2022/04/03 02:57:52;;;;;;;7.83;6.03;;;4.30;99.90;;;;;;7394006;19;20142;-82
2022/04/03 03:00:22;;;;;;;8.80;5.80;;;4.20;99.90;;;;;;7396671;19;20172;-81
2022/04/03 03:02:49;;;;;;;8.60;5.77;;;4.30;99.90;;;;;;7391528;19;20158;-82
2022/04/03 03:05:15;;;;;;;9.10;6.13;;;4.20;99.90;;;;;;7394953;19;20154;-82
2022/04/03 03:07:45;;;;;;;7.63;5.50;;;4.20;99.90;;;;;;7393614;19;20127;-82
2022/04/03 03:10:34;;;;;;;7.17;5.57;;;4.10;99.90;;;;;;7394604;19;20149;-82
2022/04/03 03:13:03;;;;;;;10.30;6.00;;;4.20;99.90;;;;;;7398790;19;20138;-81
2022/04/03 03:15:28;;;;;;;7.73;6.00;;;4.20;99.90;;;;;;7397618;19;20134;-83
2022/04/03 03:17:54;;;;;;;9.00;6.17;;;4.40;99.90;;;;;;7393912;19;20613;-81
2022/04/03 03:20:21;;;;;;;10.20;5.27;;;4.00;99.90;;;;;;7395483;19;20190;-81
2022/04/03 03:22:47;;;;;;;9.13;6.07;;;4.10;99.90;;;;;;7398586;19;20127;-82
2022/04/03 03:25:14;;;;;;;9.53;5.43;;;4.10;99.90;;;;;;7392762;19;20590;-83
2022/04/03 03:27:40;;;;;;;8.07;5.70;;;4.20;99.90;;;;;;7395555;19;20617;-83
2022/04/03 03:30:08;;;;;;;8.00;6.03;;;4.20;99.90;;;;;;7395963;19;20150;-83
2022/04/03 03:32:34;;;;;;;7.73;5.83;;;4.20;99.90;;;;;;7405260;19;20134;-82
2022/04/03 03:35:01;;;;;;;9.30;5.60;;;4.20;99.90;;;;;;7396812;19;20622;-82
2022/04/03 03:37:26;;;;;;;8.47;5.53;;;4.10;99.90;;;;;;7393438;19;20153;-81
2022/04/03 03:39:53;;;;;;;10.13;6.13;;;4.10;99.90;;;;;;7393225;19;20147;-82
2022/04/03 03:42:20;;;;;;;8.00;5.97;;;4.20;99.90;;;;;;7393758;19;20138;-80
2022/04/03 03:44:46;;;;;;;11.57;7.90;;;4.20;99.90;;;;;;7390921;19;20147;-81
2022/04/03 03:47:11;;;;;;;10.57;6.67;;;4.30;99.90;;;;;;7391057;19;20143;-82
2022/04/03 03:49:38;;;;;;;8.20;6.00;;;4.20;99.90;;;;;;7391815;19;20123;-81
2022/04/03 03:52:05;;;;;;;9.23;6.03;;;4.30;99.90;;;;;;7391332;19;20134;-81
2022/04/03 03:54:32;;;;;;;12.20;5.50;;;4.30;99.90;;;;;;7397018;19;20150;-81
2022/04/03 03:56:58;;;;;;;8.20;5.70;;;4.30;99.90;;;;;;7399833;19;20135;-82
2022/04/03 03:59:24;;;;;;;10.50;5.90;;;4.20;99.90;;;;;;7393341;19;20151;-82
2022/04/03 04:01:50;;;;;;;8.77;5.83;;;4.10;99.90;;;;;;7390526;19;20621;-82
2022/04/03 04:04:16;;;;;;;8.47;6.03;;;4.10;99.90;;;;;;7390867;19;20134;-81
2022/04/03 04:06:42;;;;;;;7.83;5.87;;;4.10;99.90;;;;;;7390937;19;20601;-80
2022/04/03 04:09:08;;;;;;;8.20;5.53;;;4.10;99.90;;;;;;7389521;19;20153;-80
2022/04/03 04:11:34;;;;;;;7.67;4.87;;;4.20;99.90;;;;;;7389308;19;20131;-80
2022/04/03 04:14:00;;;;;;;7.53;5.60;;;4.20;99.90;;;;;;7390829;19;20159;-81
2022/04/03 04:16:26;;;;;;;8.37;6.00;;;4.10;99.90;;;;;;7392834;19;20138;-81
2022/04/03 04:18:52;;;;;;;6.97;5.57;;;4.10;99.90;;;;;;7400363;19;20138;-80
2022/04/03 04:21:18;;;;;;;9.73;5.77;;;4.00;99.90;;;;;;7392157;19;20135;-80
2022/04/03 04:23:43;;;;;;;7.50;5.10;;;3.90;99.90;;;;;;7388574;19;20138;-82
2022/04/03 04:26:09;;;;;;;7.23;5.17;;;3.80;99.90;;;;;;7391209;19;20151;-81
2022/04/03 04:28:36;;;;;;;7.33;5.03;;;4.10;99.90;;;;;;7391053;19;20174;-81
2022/04/03 04:31:01;;;;;;;6.97;5.60;;;4.10;99.90;;;;;;7390795;19;20133;-80
2022/04/03 04:33:28;;;;;;;8.83;6.00;;;4.20;99.90;;;;;;7388841;19;20134;-81
2022/04/03 04:35:54;;;;;;;6.50;4.93;;;4.30;99.90;;;;;;7389321;19;20160;-80
2022/04/03 04:38:20;;;;;;;7.17;4.83;;;4.10;99.90;;;;;;7392891;19;20170;-80
2022/04/03 04:40:46;;;;;;;7.27;5.13;;;4.20;99.90;;;;;;7395449;19;20135;-81
2022/04/03 04:43:12;;;;;;;8.93;5.77;;;4.20;99.90;;;;;;7388751;19;20155;-83
2022/04/03 04:45:38;;;;;;;6.93;5.20;;;4.20;99.90;;;;;;7388773;19;20146;-82
2022/04/03 04:48:04;;;;;;;6.10;4.77;;;4.20;99.90;;;;;;7389550;19;20147;-82
2022/04/03 04:50:31;;;;;;;7.03;5.13;;;4.20;99.90;;;;;;7389196;19;20620;-82
2022/04/03 04:52:58;;;;;;;8.03;4.87;;;4.20;99.90;;;;;;7392104;19;20210;-81
2022/04/03 04:55:25;;;;;;;7.13;4.67;;;4.00;99.90;;;;;;7388805;19;20507;-81
2022/04/03 04:57:55;;;;;;;8.37;5.20;;;4.10;99.90;;;;;;7388200;19;20130;-81
2022/04/03 05:00:24;;;;;;;6.97;4.43;;;4.10;99.90;;;;;;7391244;19;20587;-82
2022/04/03 05:02:51;;;;;;;9.03;5.43;;;4.10;99.90;;;;;;7398010;19;20127;-81
2022/04/03 05:05:18;;;;;;;9.43;5.23;;;4.20;99.90;;;;;;7393657;19;20150;-81
2022/04/03 05:07:44;;;;;;;10.10;5.63;;;4.20;99.90;;;;;;7389208;19;20486;-83
2022/04/03 05:10:13;;;;;;;8.50;5.13;;;4.20;99.90;;;;;;7388573;19;20158;-82
2022/04/03 05:12:39;;;;;;;7.20;5.07;;;4.00;99.90;;;;;;7389120;19;20142;-82
2022/04/03 05:15:10;;;;;;;8.93;5.17;;;4.00;99.90;;;;;;7391523;19;20138;-81
2022/04/03 05:17:37;;;;;;;6.47;4.83;;;4.10;99.90;;;;;;7389369;19;20599;-81
2022/04/03 05:20:04;;;;;;;7.77;4.93;;;4.10;99.90;;;;;;7388842;19;20161;-83
2022/04/03 05:22:30;;;;;;;6.83;4.90;;;4.20;99.90;;;;;;7398288;19;20131;-82
2022/04/03 05:24:56;;;;;;;7.63;5.17;;;4.20;99.90;;;;;;7389224;19;20147;-82
2022/04/03 05:27:22;;;;;;;7.67;5.53;;;4.20;99.90;;;;;;7390693;19;20164;-82
2022/04/03 05:29:48;;;;;;;7.63;4.90;;;4.30;99.90;;;;;;7387971;19;20146;-82
2022/04/03 05:32:14;;;;;;;8.40;5.57;;;4.30;99.90;;;;;;7390215;19;20135;-81
2022/04/03 05:34:40;;;;;;;6.87;4.83;;;4.20;99.90;;;;;;7390456;19;20166;-82
2022/04/03 05:37:06;;;;;;;6.43;4.93;;;4.10;99.90;;;;;;7388607;19;20130;-82
2022/04/03 05:39:32;;;;;;;7.30;4.83;;;4.20;99.90;;;;;;7388621;19;20166;-83
2022/04/03 05:41:58;;;;;;;8.00;5.17;;;4.20;99.90;;;;;;7396188;19;20135;-81
2022/04/03 05:44:24;;;;;;;8.20;5.37;;;4.20;99.90;;;;;;7387716;19;20139;-82
2022/04/03 05:46:51;;;;;;;6.50;4.67;;;4.20;99.90;;;;;;7388294;19;20134;-80
2022/04/03 05:49:17;;;;;;;5.80;4.30;;;4.10;99.90;;;;;;7390484;19;20175;-81
2022/04/03 05:51:44;;;;;;;6.40;4.77;;;4.10;99.90;;;;;;7392733;19;20134;-82
2022/04/03 05:54:10;;;;;;;7.40;5.00;;;4.20;99.90;;;;;;7388792;19;20206;-82
2022/04/03 05:56:37;;;;;;;5.97;4.43;;;4.20;99.90;;;;;;7387298;19;20138;-81
2022/04/03 05:59:03;;;;;;;5.83;4.33;;;4.40;99.90;;;;;;7395168;19;20147;-81
2022/04/03 06:01:32;;;;;;;7.07;4.50;;;4.50;99.90;;;;;;7389181;19;20141;-82
2022/04/03 06:04:00;;;;;;;7.27;4.27;;;4.50;99.90;;;;;;7386202;19;20158;-82
2022/04/03 06:06:29;;;;;;;5.00;4.17;;;4.50;99.90;;;;;;7386254;19;20143;-81
2022/04/03 06:08:54;;;;;;;5.43;3.80;;;4.50;99.90;;;;;;7391943;19;20145;-82
2022/04/03 06:11:20;;;;;;;5.03;3.93;;;4.40;99.90;;;;;;7394279;19;20138;-80
2022/04/03 06:13:46;;;;;;;7.10;4.13;;;4.50;99.90;;;;;;7401055;19;20138;-82
2022/04/03 06:16:12;;;;;;;5.93;4.23;;;4.40;99.90;;;;;;7397690;19;20151;-81
2022/04/03 06:18:38;;;;;;;5.43;4.00;;;4.50;99.90;;;;;;7395547;19;20131;-81
2022/04/03 06:21:03;;;;;;;6.50;4.07;;;4.50;99.90;;;;;;7418785;19;20139;-82
2022/04/03 06:23:29;;;;;;;7.77;4.77;;;4.30;99.90;;;;;;7397772;19;20150;-80
2022/04/03 06:25:58;;;;;;;7.50;3.83;;;4.30;99.90;;;;;;7395261;19;20174;-81
2022/04/03 06:28:27;;;;;;;5.10;3.73;;;4.40;99.90;;;;;;7395325;19;20139;-81
2022/04/03 06:30:54;;;;;;;6.20;4.00;;;4.50;99.90;;;;;;7395535;19;20151;-82
2022/04/03 06:33:20;;;;;;;6.33;4.00;;;4.60;99.90;;;;;;7396518;19;20219;-81
2022/04/03 06:35:46;;;;;;;6.40;3.90;;;4.60;99.90;;;;;;7398302;19;20127;-82
2022/04/03 06:38:13;;;;;;;5.50;3.73;;;4.70;99.90;;;;;;7392453;19;20206;-82
2022/04/03 06:40:53;;;;;;;6.10;4.20;;;4.60;99.90;;;;;;7409688;19;20134;-81
2022/04/03 06:43:21;;;;;;;6.77;4.10;;;4.60;99.90;;;;;;7394372;19;20158;-82
2022/04/03 06:45:49;;;;;;;5.20;3.60;;;4.60;99.90;;;;;;7393487;19;20230;-81
2022/04/03 06:48:16;;;;;;;8.33;3.80;;;4.70;99.90;;;;;;7393656;19;20227;-81
2022/04/03 06:50:41;;;;;;;5.63;3.77;;;4.70;99.90;;;;;;7393622;19;20223;-81
2022/04/03 06:53:07;;;;;;;5.20;3.47;;;4.80;99.90;;;;;;7395774;19;20147;-82
2022/04/03 06:55:36;;;;;;;4.40;3.70;;;4.70;99.90;;;;;;7393721;19;20677;-82
2022/04/03 06:58:05;;;;;;;3.87;2.87;;;4.70;99.90;;;;;;7397983;19;20126;-83
2022/04/03 07:00:31;;;;;;;4.87;3.60;;;4.60;99.90;;;;;;7404979;19;20202;-82
2022/04/03 07:03:02;;;;;;;5.13;3.40;;;4.70;99.90;;;;;;7396677;19;20154;-82
2022/04/03 07:05:34;;;;;;;6.67;4.00;;;4.90;99.90;;;;;;7396890;19;20146;-81
2022/04/03 07:08:02;;;;;;;5.63;3.60;;;4.70;99.90;;;;;;7395404;19;20186;-82
2022/04/03 07:10:31;;;;;;;6.43;4.03;;;4.80;99.90;;;;;;7396870;19;20146;-84
2022/04/03 07:12:59;;;;;;;5.83;3.97;;;4.80;99.90;;;;;;7399362;19;20138;-81
2022/04/03 07:15:26;;;;;;;5.53;3.97;;;4.90;99.90;;;;;;7398675;19;20131;-82
2022/04/03 07:17:55;;;;;;;6.87;4.00;;;4.70;99.90;;;;;;7394868;19;20536;-82
2022/04/03 07:20:23;;;;;;;4.40;2.80;;;4.80;99.90;;;;;;7411199;19;20167;-80
2022/04/03 07:22:51;;;;;;;4.23;3.40;;;4.50;99.90;;;;;;7397181;19;20135;-82
2022/04/03 07:25:19;;;;;;;4.00;3.30;;;4.60;99.90;;;;;;7396790;19;20194;-80
2022/04/03 07:27:45;;;;;;;5.83;3.47;;;4.60;99.90;;;;;;7394599;19;20147;-84
2022/04/03 07:30:12;;;;;;;4.63;3.13;;;4.70;99.90;;;;;;7395662;19;20134;-82
2022/04/03 07:32:38;;;;;;;4.23;3.40;;;4.90;99.90;;;;;;7398253;19;20215;-80
2022/04/03 07:35:14;;;;;;;4.90;3.43;;;4.70;99.90;;;;;;7398894;19;20150;-83
2022/04/03 07:37:42;;;;;;;4.83;3.37;;;4.80;99.90;;;;;;7404455;19;20241;-81
2022/04/03 07:40:11;;;;;;;6.77;3.60;;;4.90;99.90;;;;;;7396626;19;20211;-81
2022/04/03 07:42:39;;;;;;;5.33;3.50;;;4.90;99.90;;;;;;7402898;19;20134;-80
2022/04/03 07:45:11;;;;;;;4.60;3.47;;;4.90;99.90;;;;;;7395664;19;20154;-82
2022/04/03 07:47:46;;;;;;;5.20;3.70;;;5.00;99.90;;;;;;7394676;19;20147;-83
2022/04/03 07:50:12;;;;;;;6.27;4.40;;;5.20;99.90;;;;;;7393484;19;20169;-81
2022/04/03 07:52:38;;;;;;;6.67;3.33;;;5.20;99.90;;;;;;7394656;19;20126;-81
2022/04/03 07:55:04;;;;;;;4.90;3.43;;;5.20;99.90;;;;;;7395821;19;20147;-81
2022/04/03 07:57:30;;;;;;;4.00;3.03;;;5.10;99.90;;;;;;7398147;19;20478;-79
2022/04/03 07:59:56;;;;;;;5.40;3.37;;;5.20;99.90;;;;;;7403943;19;20155;-80
2022/04/03 08:02:23;;;;;;;5.03;3.87;;;5.20;99.90;;;;;;7396185;19;20602;-80
2022/04/03 08:04:49;;;;;;;4.53;3.23;;;5.20;99.90;;;;;;7394555;19;20153;-79
2022/04/03 08:07:15;;;;;;;4.80;3.43;;;5.20;99.90;;;;;;7393335;19;20150;-81
2022/04/03 08:09:41;;;;;;;5.47;3.17;;;5.20;99.90;;;;;;7392891;19;20601;-80
2022/04/03 08:12:09;;;;;;;4.00;3.10;;;5.20;99.90;;;;;;7396017;19;20151;-81
2022/04/03 08:14:35;;;;;;;6.23;3.33;;;5.30;99.90;;;;;;7395294;19;20191;-84
2022/04/03 08:17:00;;;;;;;4.70;3.83;;;5.30;99.90;;;;;;7392506;19;20391;-79
2022/04/03 08:19:26;;;;;;;4.90;3.20;;;5.30;99.90;;;;;;7382453;19;20542;-81
2022/04/03 08:21:52;;;;;;;4.83;3.40;;;5.20;99.90;;;;;;7399873;19;20138;-81
2022/04/03 08:24:17;;;;;;;3.63;3.20;;;5.10;99.90;;;;;;7386270;19;20669;-79
2022/04/03 08:26:43;;;;;;;4.47;3.27;;;5.00;99.90;;;;;;7384074;19;20153;-79
2022/04/03 08:29:12;;;;;;;4.63;2.80;;;5.00;99.90;;;;;;7379670;19;20162;-79
2022/04/03 08:31:38;;;;;;;4.93;3.70;;;5.00;99.90;;;;;;7380166;19;20166;-79
2022/04/03 08:34:03;;;;;;;6.27;3.30;;;5.10;99.90;;;;;;7387325;19;20162;-81
2022/04/03 08:36:29;;;;;;;3.57;2.70;;;5.20;99.90;;;;;;7388510;19;20164;-81
2022/04/03 08:38:56;;;;;;;5.53;3.33;;;5.20;99.90;;;;;;7387075;19;20165;-80
2022/04/03 08:41:22;;;;;;;5.17;3.03;;;5.10;99.90;;;;;;7393784;19;20154;-80
2022/04/03 08:43:47;;;;;;;5.20;3.40;;;5.20;99.90;;;;;;7399317;19;20138;-80
2022/04/03 08:46:14;;;;;;;4.57;3.10;;;5.50;99.90;;;;;;7389174;19;20127;-81
2022/04/03 08:48:44;;;;;;;4.97;3.13;;;5.60;99.90;;;;;;7388258;19;20658;-81
2022/04/03 08:51:10;;;;;;;3.83;2.97;;;5.80;99.90;;;;;;7388846;19;20140;-82
2022/04/03 08:53:38;;;;;;;3.40;3.10;;;6.00;99.90;;;;;;7387894;19;20182;-78
2022/04/03 08:56:05;;;;;;;4.43;3.57;;;6.00;99.90;;;;;;7388387;19;20147;-84
2022/04/03 08:58:32;;;;;;;3.53;2.70;;;6.20;99.90;;;;;;7389510;19;20143;-84
2022/04/03 09:00:57;;;;;;;3.47;2.73;;;6.50;99.90;;;;;;7390816;19;20134;-79
2022/04/03 09:03:23;;;;;;;4.03;3.00;;;6.50;99.90;;;;;;7397440;19;20665;-78
2022/04/03 09:05:49;;;;;;;4.03;3.03;;;6.80;99.90;;;;;;7393089;19;20131;-80
2022/04/03 09:08:15;;;;;;;4.83;3.23;;;6.90;99.90;;;;;;7389288;19;20131;-81
2022/04/03 09:10:41;;;;;;;4.83;3.37;;;6.50;99.90;;;;;;7389200;19;20154;-79
2022/04/03 09:13:09;;;;;;;3.63;2.60;;;6.20;99.90;;;;;;7390611;19;20130;-81
2022/04/03 09:15:35;;;;;;;3.37;2.60;;;5.90;99.90;;;;;;7392195;19;21020;-80
2022/04/03 09:18:04;;;;;;;4.77;2.70;;;5.90;99.90;;;;;;7392728;19;20139;-80
2022/04/03 09:20:32;;;;;;;2.50;1.97;;;5.70;99.90;;;;;;7398182;19;20138;-80
2022/04/03 09:23:00;;;;;;;4.07;2.50;;;5.50;99.90;;;;;;7393779;19;20138;-79
2022/04/03 09:25:30;;;;;;;5.77;2.70;;;5.60;99.90;;;;;;7386271;19;20194;-80
2022/04/03 09:27:58;;;;;;;2.97;2.10;;;5.60;99.90;;;;;;7380062;19;20165;-79
2022/04/03 09:30:30;;;;;;;4.33;2.80;;;5.70;99.90;;;;;;7380227;19;20800;-79
2022/04/03 09:32:57;;;;;;;3.43;2.30;;;5.70;99.90;;;;;;7387726;19;20202;-77
2022/04/03 09:35:31;;;;;;;3.13;2.40;;;5.70;99.90;;;;;;7389086;19;20243;-79
2022/04/03 09:38:07;;;;;;;4.27;2.80;;;5.60;99.90;;;;;;7389465;19;20151;-79
2022/04/03 09:40:35;;;;;;;3.37;2.70;;;5.70;99.90;;;;;;7405140;19;20150;-78
2022/04/03 09:43:19;;;;;;;4.53;2.83;;;5.80;99.90;;;;;;7406465;19;20647;-80
2022/04/03 09:45:53;;;;;;;3.63;2.37;;;5.90;99.90;;;;;;7397185;19;20225;-79
2022/04/03 09:48:23;;;;;;;5.73;2.70;;;6.00;99.90;;;;;;7396785;19;20241;-81
2022/04/03 09:51:06;;;;;;;3.57;2.40;;;5.80;99.90;;;;;;7396119;19;20553;-80
2022/04/03 09:53:56;;;;;;;2.87;2.30;;;5.90;99.90;;;;;;7397996;19;20154;-79
2022/04/03 09:56:23;;;;;;;4.20;2.80;;;5.90;99.90;;;;;;7392891;19;20130;-79
2022/04/03 09:58:51;;;;;;;4.47;2.63;;;5.60;99.90;;;;;;7394419;19;20495;-79
2022/04/03 10:01:31;;;;;;;3.07;2.67;;;5.10;99.90;;;;;;7404044;19;20130;-80
2022/04/03 10:04:00;;;;;;;2.43;2.23;;;5.40;99.90;;;;;;7397140;19;20130;-77
2022/04/03 10:06:27;;;;;;;3.67;2.60;;;5.60;99.90;;;;;;7390405;19;20549;-81
2022/04/03 10:08:53;;;;;;;3.40;2.30;;;5.70;99.90;;;;;;7390870;19;20142;-80
2022/04/03 10:11:20;;;;;;;3.20;2.60;;;6.00;99.90;;;;;;7390942;19;20151;-79
2022/04/03 10:13:48;;;;;;;3.00;2.70;;;5.70;99.90;;;;;;7390667;19;20165;-79
2022/04/03 10:16:16;;;;;;;5.63;2.73;;;5.70;99.90;;;;;;7390662;19;20149;-78
2022/04/03 10:18:43;;;;;;;4.40;2.77;;;5.50;99.90;;;;;;7400725;19;20154;-79
2022/04/03 10:21:38;;;;;;;3.37;2.70;;;5.40;99.90;;;;;;7418679;19;20123;-80
2022/04/03 10:24:08;;;;;;;4.60;2.37;;;5.60;99.90;;;;;;7393746;19;20138;-78
2022/04/03 10:26:38;;;;;;;3.17;2.20;;;5.50;99.90;;;;;;7395704;19;20477;-80
2022/04/03 10:29:09;;;;;;;3.47;2.40;;;5.40;99.90;;;;;;7395499;19;20153;-79
2022/04/03 10:31:39;;;;;;;3.17;2.13;;;5.50;99.90;;;;;;7395656;19;20138;-79
2022/04/03 10:34:05;;;;;;;7.13;2.50;;;5.80;99.90;;;;;;7393383;19;20138;-80
2022/04/03 10:36:33;;;;;;;4.03;2.50;;;5.50;99.90;;;;;;7394557;19;20168;-79
2022/04/03 10:39:08;;;;;;;3.33;2.30;;;5.60;99.90;;;;;;7392418;19;20149;-79
2022/04/03 10:41:43;;;;;;;3.30;2.53;;;5.50;99.90;;;;;;7393880;19;20150;-79
2022/04/03 10:44:29;;;;;;;3.17;2.17;;;5.40;99.90;;;;;;7407814;19;20133;-79
2022/04/03 10:47:04;;;;;;;3.47;2.60;;;5.30;99.90;;;;;;7405008;19;20617;-79
2022/04/03 10:49:30;;;;;;;3.47;2.40;;;5.50;99.90;;;;;;7395426;19;20138;-80
2022/04/03 10:52:22;;;;;;;4.00;2.40;;;5.60;99.90;;;;;;7394892;19;20564;-81
2022/04/03 10:54:57;;;;;;;3.07;2.43;;;5.80;99.90;;;;;;7393618;19;20548;-82
2022/04/03 10:57:42;;;;;;;4.57;2.70;;;6.00;99.90;;;;;;7394365;19;20157;-80
2022/04/03 11:00:17;;;;;;;3.33;2.00;;;6.10;99.90;;;;;;7397524;19;20142;-80
2022/04/03 11:02:49;;;;;;;2.60;1.93;;;6.20;99.90;;;;;;7398702;19;20169;-80
2022/04/03 11:05:21;;;;;;;2.37;2.17;;;6.00;99.90;;;;;;7401527;19;20151;-80
2022/04/03 11:07:54;;;;;;;5.37;3.63;;;6.20;99.90;;;;;;7411696;19;20134;-82
2022/04/03 11:10:48;;;;;;;2.83;2.20;;;6.20;99.90;;;;;;7404052;19;20634;-80
2022/04/03 11:13:22;;;;;;;2.70;1.90;;;6.10;99.90;;;;;;7399425;19;20142;-80
2022/04/03 11:16:00;;;;;;;3.27;1.97;;;6.40;99.90;;;;;;7400289;19;20500;-78
2022/04/03 11:18:41;;;;;;;3.57;1.90;;;6.30;99.90;;;;;;7396979;19;20142;-81
2022/04/03 11:21:27;;;;;;;2.57;1.83;;;6.40;99.90;;;;;;7399029;19;20226;-81
2022/04/03 11:24:15;;;;;;;3.80;2.30;;;6.40;99.90;;;;;;7399718;19;20138;-80
2022/04/03 11:26:50;;;;;;;2.43;2.20;;;6.50;99.90;;;;;;7414139;19;20162;-81
2022/04/03 11:29:18;;;;;;;2.70;1.70;;;6.50;99.90;;;;;;7399603;19;20134;-80
2022/04/03 11:31:49;;;;;;;2.57;2.17;;;6.80;99.90;;;;;;7393911;19;20154;-80
2022/04/03 11:34:15;;;;;;;1.83;1.60;;;6.90;99.90;;;;;;7395131;19;20508;-82
2022/04/03 11:36:42;;;;;;;4.63;1.77;;;6.80;99.90;;;;;;7395898;19;20214;-81
2022/04/03 11:39:14;;;;;;;3.63;1.93;;;6.60;99.90;;;;;;7396962;19;20733;-81
2022/04/03 11:41:40;;;;;;;2.83;1.80;;;6.40;99.90;;;;;;7399887;19;20720;-81
2022/04/03 11:44:11;;;;;;;3.77;1.80;;;6.40;99.90;;;;;;7396632;19;20170;-81
2022/04/03 11:46:51;;;;;;;2.50;1.80;;;6.50;99.90;;;;;;7399277;19;20489;-81
2022/04/03 11:49:29;;;;;;;3.17;1.70;;;6.00;99.90;;;;;;7415603;19;20222;-80
2022/04/03 11:52:10;;;;;;;1.90;1.60;;;5.80;99.90;;;;;;7402409;19;20141;-81
2022/04/03 11:54:37;;;;;;;1.77;1.57;;;6.20;99.90;;;;;;7397521;19;20134;-82
2022/04/03 11:57:08;;;;;;;3.20;1.77;;;6.20;99.90;;;;;;7398144;19;20146;-81
2022/04/03 11:59:35;;;;;;;2.07;1.60;;;6.40;99.90;;;;;;7399093;19;20756;-82
2022/04/03 12:02:27;;;;;;;2.97;1.87;;;6.50;99.90;;;;;;7395406;19;20138;-82
2022/04/03 12:04:56;;;;;;;2.90;2.00;;;6.60;99.90;;;;;;7395590;19;20587;-78
2022/04/03 12:07:23;;;;;;;2.57;2.03;;;6.70;99.90;;;;;;7403297;19;20126;-80
2022/04/03 12:09:49;;;;;;;2.00;1.80;;;6.60;99.90;;;;;;7403188;19;20149;-83
2022/04/03 12:12:24;;;;;;;2.90;1.77;;;6.70;99.90;;;;;;7403671;19;20142;-82
2022/04/03 12:14:51;;;;;;;4.70;2.00;;;6.70;99.90;;;;;;7401163;19;20397;-82
2022/04/03 12:17:18;;;;;;;3.37;1.73;;;6.80;99.90;;;;;;7400022;19;20180;-83
2022/04/03 12:19:51;;;;;;;3.03;2.00;;;7.00;99.90;;;;;;7399715;19;20150;-81
2022/04/03 12:22:20;;;;;;;3.67;2.00;;;7.00;99.90;;;;;;7405529;19;20159;-82
2022/04/03 12:24:49;;;;;;;2.00;1.80;;;7.00;99.90;;;;;;7397299;19;20744;-80
2022/04/03 12:27:15;;;;;;;3.30;2.13;;;7.00;99.90;;;;;;7392931;19;20150;-80
2022/04/03 12:29:43;;;;;;;5.10;2.97;;;7.00;99.90;;;;;;7392192;19;20266;-81
2022/04/03 12:32:12;;;;;;;5.47;2.57;;;7.10;99.90;;;;;;7400914;19;20135;-79
2022/04/03 12:34:43;;;;;;;3.77;2.17;;;6.70;99.90;;;;;;7396111;19;20139;-80
2022/04/03 12:37:10;;;;;;;2.80;2.00;;;6.60;99.90;;;;;;7394196;19;20141;-83
2022/04/03 12:39:52;;;;;;;4.63;2.27;;;6.50;99.90;;;;;;7395884;19;20157;-82
2022/04/03 12:42:31;;;;;;;3.30;2.23;;;6.40;99.90;;;;;;7403603;19;20155;-81
2022/04/03 12:45:16;;;;;;;3.17;2.23;;;6.50;99.90;;;;;;7399604;19;20138;-83
2022/04/03 12:48:01;;;;;;;2.60;1.73;;;6.50;99.90;;;;;;7397953;19;20501;-82
2022/04/03 12:50:30;;;;;;;3.37;1.90;;;6.60;99.90;;;;;;7400414;19;20162;-81
2022/04/03 12:53:00;;;;;;;2.67;2.20;;;6.40;99.90;;;;;;7395432;19;20174;-81
2022/04/03 12:55:47;;;;;;;8.77;4.37;;;6.30;99.90;;;;;;7395143;19;20142;-81
2022/04/03 12:58:25;;;;;;;5.47;3.43;;;6.30;99.90;;;;;;7393158;19;20135;-80
2022/04/03 13:01:11;;;;;;;6.47;3.07;;;6.20;99.90;;;;;;7393207;19;20615;-83
2022/04/03 13:03:45;;;;;;;2.50;2.03;;;6.10;99.90;;;;;;7391173;19;20594;-82
2022/04/03 13:06:15;;;;;;;3.87;2.30;;;6.00;99.90;;;;;;7392855;19;20162;-82